sensor_id;sensor_type;location;lat;lon;timestamp;P1;durP1;ratioP1;P2;durP2;ratioP2
67902;SDS011;54708;43.612;1.568;2022-11-20T00:01:22;2.75;;;2.45;;
67902;SDS011;54708;43.612;1.568;2022-11-20T00:03:50;3.05;;;2.67;;
67902;SDS011;54708;43.612;1.568;2022-11-20T00:06:17;7.35;;;3.20;;
67902;SDS011;54708;43.612;1.568;2022-11-20T00:08:44;3.13;;;2.60;;
67902;SDS011;54708;43.612;1.568;2022-11-20T00:11:10;3.83;;;2.60;;
67902;SDS011;54708;43.612;1.568;2022-11-20T00:13:37;3.22;;;2.40;;
67902;SDS011;54708;43.612;1.568;2022-11-20T00:16:03;4.80;;;2.47;;
67902;SDS011;54708;43.612;1.568;2022-11-20T00:18:30;4.10;;;2.28;;
67902;SDS011;54708;43.612;1.568;2022-11-20T00:21:05;2.55;;;2.35;;
67902;SDS011;54708;43.612;1.568;2022-11-20T00:23:32;3.38;;;2.55;;
67902;SDS011;54708;43.612;1.568;2022-11-20T00:26:05;3.85;;;2.97;;
67902;SDS011;54708;43.612;1.568;2022-11-20T00:28:31;5.20;;;2.30;;
67902;SDS011;54708;43.612;1.568;2022-11-20T00:31:01;5.88;;;3.05;;
67902;SDS011;54708;43.612;1.568;2022-11-20T00:33:30;4.43;;;2.90;;
67902;SDS011;54708;43.612;1.568;2022-11-20T00:36:02;5.32;;;2.63;;
67902;SDS011;54708;43.612;1.568;2022-11-20T00:38:32;4.88;;;3.28;;
67902;SDS011;54708;43.612;1.568;2022-11-20T00:40:58;3.35;;;2.83;;
67902;SDS011;54708;43.612;1.568;2022-11-20T00:43:25;5.20;;;2.53;;
67902;SDS011;54708;43.612;1.568;2022-11-20T00:45:58;3.25;;;2.33;;
67902;SDS011;54708;43.612;1.568;2022-11-20T00:48:27;5.03;;;2.58;;
67902;SDS011;54708;43.612;1.568;2022-11-20T00:50:53;7.82;;;3.75;;
67902;SDS011;54708;43.612;1.568;2022-11-20T00:53:18;3.10;;;2.50;;
67902;SDS011;54708;43.612;1.568;2022-11-20T00:55:52;3.67;;;2.58;;
67902;SDS011;54708;43.612;1.568;2022-11-20T00:58:18;4.25;;;3.05;;
67902;SDS011;54708;43.612;1.568;2022-11-20T01:00:43;5.38;;;3.05;;
67902;SDS011;54708;43.612;1.568;2022-11-20T01:03:09;3.53;;;2.88;;
67902;SDS011;54708;43.612;1.568;2022-11-20T01:05:34;3.40;;;2.90;;
67902;SDS011;54708;43.612;1.568;2022-11-20T01:08:00;4.05;;;2.83;;
67902;SDS011;54708;43.612;1.568;2022-11-20T01:10:26;4.10;;;2.95;;
67902;SDS011;54708;43.612;1.568;2022-11-20T01:12:51;3.65;;;3.00;;
67902;SDS011;54708;43.612;1.568;2022-11-20T01:15:36;8.73;;;3.63;;
67902;SDS011;54708;43.612;1.568;2022-11-20T01:18:02;5.78;;;3.47;;
67902;SDS011;54708;43.612;1.568;2022-11-20T01:20:27;4.75;;;3.22;;
67902;SDS011;54708;43.612;1.568;2022-11-20T01:22:53;4.22;;;3.80;;
67902;SDS011;54708;43.612;1.568;2022-11-20T01:25:18;5.20;;;3.88;;
67902;SDS011;54708;43.612;1.568;2022-11-20T01:27:43;5.88;;;3.20;;
67902;SDS011;54708;43.612;1.568;2022-11-20T01:30:09;8.05;;;3.78;;
67902;SDS011;54708;43.612;1.568;2022-11-20T01:32:34;4.15;;;3.45;;
67902;SDS011;54708;43.612;1.568;2022-11-20T01:35:00;10.10;;;4.72;;
67902;SDS011;54708;43.612;1.568;2022-11-20T01:37:25;6.18;;;3.28;;
67902;SDS011;54708;43.612;1.568;2022-11-20T01:39:50;5.70;;;3.53;;
67902;SDS011;54708;43.612;1.568;2022-11-20T01:42:16;8.18;;;3.90;;
67902;SDS011;54708;43.612;1.568;2022-11-20T01:45:00;5.10;;;3.63;;
67902;SDS011;54708;43.612;1.568;2022-11-20T01:47:34;8.13;;;3.67;;
67902;SDS011;54708;43.612;1.568;2022-11-20T01:50:06;4.63;;;3.10;;
67902;SDS011;54708;43.612;1.568;2022-11-20T01:52:39;3.80;;;3.15;;
67902;SDS011;54708;43.612;1.568;2022-11-20T01:55:13;4.90;;;4.40;;
67902;SDS011;54708;43.612;1.568;2022-11-20T01:57:42;2.83;;;2.63;;
67902;SDS011;54708;43.612;1.568;2022-11-20T02:00:09;6.25;;;3.35;;
67902;SDS011;54708;43.612;1.568;2022-11-20T02:02:36;3.95;;;3.20;;
67902;SDS011;54708;43.612;1.568;2022-11-20T02:05:16;6.50;;;3.22;;
67902;SDS011;54708;43.612;1.568;2022-11-20T02:07:45;2.70;;;2.50;;
67902;SDS011;54708;43.612;1.568;2022-11-20T02:10:11;6.25;;;2.90;;
67902;SDS011;54708;43.612;1.568;2022-11-20T02:12:37;4.00;;;3.47;;
67902;SDS011;54708;43.612;1.568;2022-11-20T02:15:21;3.95;;;3.08;;
67902;SDS011;54708;43.612;1.568;2022-11-20T02:17:46;3.15;;;2.75;;
67902;SDS011;54708;43.612;1.568;2022-11-20T02:20:11;6.72;;;3.45;;
67902;SDS011;54708;43.612;1.568;2022-11-20T02:22:39;4.30;;;3.03;;
67902;SDS011;54708;43.612;1.568;2022-11-20T02:25:10;3.90;;;2.85;;
67902;SDS011;54708;43.612;1.568;2022-11-20T02:27:36;3.22;;;2.88;;
67902;SDS011;54708;43.612;1.568;2022-11-20T02:30:03;4.03;;;2.85;;
67902;SDS011;54708;43.612;1.568;2022-11-20T02:32:31;4.65;;;2.70;;
67902;SDS011;54708;43.612;1.568;2022-11-20T02:34:58;3.38;;;3.05;;
67902;SDS011;54708;43.612;1.568;2022-11-20T02:37:34;4.95;;;3.53;;
67902;SDS011;54708;43.612;1.568;2022-11-20T02:40:02;3.78;;;2.33;;
67902;SDS011;54708;43.612;1.568;2022-11-20T02:42:28;4.32;;;2.08;;
67902;SDS011;54708;43.612;1.568;2022-11-20T02:44:53;3.05;;;2.40;;
67902;SDS011;54708;43.612;1.568;2022-11-20T02:47:19;3.28;;;2.40;;
67902;SDS011;54708;43.612;1.568;2022-11-20T02:49:44;4.05;;;2.33;;
67902;SDS011;54708;43.612;1.568;2022-11-20T02:52:09;5.63;;;2.83;;
67902;SDS011;54708;43.612;1.568;2022-11-20T02:54:35;5.53;;;2.22;;
67902;SDS011;54708;43.612;1.568;2022-11-20T02:57:00;2.80;;;2.60;;
67902;SDS011;54708;43.612;1.568;2022-11-20T02:59:25;2.78;;;2.33;;
67902;SDS011;54708;43.612;1.568;2022-11-20T03:01:51;2.38;;;2.17;;
67902;SDS011;54708;43.612;1.568;2022-11-20T03:04:16;3.67;;;2.38;;
67902;SDS011;54708;43.612;1.568;2022-11-20T03:06:42;2.92;;;2.58;;
67902;SDS011;54708;43.612;1.568;2022-11-20T03:09:07;8.35;;;3.13;;
67902;SDS011;54708;43.612;1.568;2022-11-20T03:11:33;3.25;;;2.63;;
67902;SDS011;54708;43.612;1.568;2022-11-20T03:14:01;2.47;;;2.28;;
67902;SDS011;54708;43.612;1.568;2022-11-20T03:16:27;3.15;;;2.88;;
67902;SDS011;54708;43.612;1.568;2022-11-20T03:18:52;3.60;;;3.30;;
67902;SDS011;54708;43.612;1.568;2022-11-20T03:21:18;2.88;;;2.60;;
67902;SDS011;54708;43.612;1.568;2022-11-20T03:23:44;6.40;;;3.17;;
67902;SDS011;54708;43.612;1.568;2022-11-20T03:26:16;8.35;;;3.15;;
67902;SDS011;54708;43.612;1.568;2022-11-20T03:28:57;4.50;;;2.65;;
67902;SDS011;54708;43.612;1.568;2022-11-20T03:31:25;9.65;;;3.85;;
67902;SDS011;54708;43.612;1.568;2022-11-20T03:33:53;6.47;;;3.53;;
67902;SDS011;54708;43.612;1.568;2022-11-20T03:36:19;4.78;;;2.63;;
67902;SDS011;54708;43.612;1.568;2022-11-20T03:38:45;4.55;;;3.28;;
67902;SDS011;54708;43.612;1.568;2022-11-20T03:41:12;3.15;;;2.47;;
67902;SDS011;54708;43.612;1.568;2022-11-20T03:43:38;3.97;;;2.47;;
67902;SDS011;54708;43.612;1.568;2022-11-20T03:46:04;4.35;;;2.65;;
67902;SDS011;54708;43.612;1.568;2022-11-20T03:48:30;5.90;;;3.28;;
67902;SDS011;54708;43.612;1.568;2022-11-20T03:51:12;2.58;;;2.38;;
67902;SDS011;54708;43.612;1.568;2022-11-20T03:53:40;6.55;;;3.30;;
67902;SDS011;54708;43.612;1.568;2022-11-20T03:56:06;4.68;;;2.65;;
67902;SDS011;54708;43.612;1.568;2022-11-20T03:58:33;6.10;;;2.75;;
67902;SDS011;54708;43.612;1.568;2022-11-20T04:01:04;5.35;;;3.15;;
67902;SDS011;54708;43.612;1.568;2022-11-20T04:03:31;3.67;;;2.70;;
67902;SDS011;54708;43.612;1.568;2022-11-20T04:06:01;3.70;;;2.80;;
67902;SDS011;54708;43.612;1.568;2022-11-20T04:08:30;3.30;;;3.00;;
67902;SDS011;54708;43.612;1.568;2022-11-20T04:10:56;3.47;;;3.03;;
67902;SDS011;54708;43.612;1.568;2022-11-20T04:13:22;5.22;;;3.13;;
67902;SDS011;54708;43.612;1.568;2022-11-20T04:15:47;6.70;;;4.68;;
67902;SDS011;54708;43.612;1.568;2022-11-20T04:18:12;4.35;;;3.55;;
67902;SDS011;54708;43.612;1.568;2022-11-20T04:20:38;4.00;;;3.10;;
67902;SDS011;54708;43.612;1.568;2022-11-20T04:23:03;6.70;;;3.30;;
67902;SDS011;54708;43.612;1.568;2022-11-20T04:25:28;3.50;;;3.20;;
67902;SDS011;54708;43.612;1.568;2022-11-20T04:27:54;5.65;;;3.55;;
67902;SDS011;54708;43.612;1.568;2022-11-20T04:30:19;4.63;;;3.95;;
67902;SDS011;54708;43.612;1.568;2022-11-20T04:32:45;6.70;;;3.78;;
67902;SDS011;54708;43.612;1.568;2022-11-20T04:35:10;5.28;;;3.13;;
67902;SDS011;54708;43.612;1.568;2022-11-20T04:37:35;3.63;;;3.25;;
67902;SDS011;54708;43.612;1.568;2022-11-20T04:40:01;5.00;;;3.75;;
67902;SDS011;54708;43.612;1.568;2022-11-20T04:42:26;7.30;;;4.18;;
67902;SDS011;54708;43.612;1.568;2022-11-20T04:44:54;16.48;;;8.05;;
67902;SDS011;54708;43.612;1.568;2022-11-20T04:47:20;22.20;;;11.35;;
67902;SDS011;54708;43.612;1.568;2022-11-20T04:49:45;13.05;;;8.00;;
67902;SDS011;54708;43.612;1.568;2022-11-20T04:52:11;10.48;;;6.45;;
67902;SDS011;54708;43.612;1.568;2022-11-20T04:54:36;12.43;;;6.97;;
67902;SDS011;54708;43.612;1.568;2022-11-20T04:57:02;8.50;;;5.93;;
67902;SDS011;54708;43.612;1.568;2022-11-20T04:59:27;8.70;;;5.55;;
67902;SDS011;54708;43.612;1.568;2022-11-20T05:01:52;7.13;;;4.88;;
67902;SDS011;54708;43.612;1.568;2022-11-20T05:04:18;8.88;;;5.28;;
67902;SDS011;54708;43.612;1.568;2022-11-20T05:06:43;18.15;;;10.13;;
67902;SDS011;54708;43.612;1.568;2022-11-20T05:09:10;19.85;;;11.63;;
67902;SDS011;54708;43.612;1.568;2022-11-20T05:11:36;20.95;;;11.90;;
67902;SDS011;54708;43.612;1.568;2022-11-20T05:14:01;17.45;;;10.05;;
67902;SDS011;54708;43.612;1.568;2022-11-20T05:16:26;19.30;;;7.55;;
67902;SDS011;54708;43.612;1.568;2022-11-20T05:18:53;17.77;;;7.65;;
67902;SDS011;54708;43.612;1.568;2022-11-20T05:21:19;9.25;;;6.38;;
67902;SDS011;54708;43.612;1.568;2022-11-20T05:23:45;11.80;;;6.18;;
67902;SDS011;54708;43.612;1.568;2022-11-20T05:26:14;8.85;;;5.60;;
67902;SDS011;54708;43.612;1.568;2022-11-20T05:28:41;10.95;;;6.13;;
67902;SDS011;54708;43.612;1.568;2022-11-20T05:31:08;9.20;;;6.28;;
67902;SDS011;54708;43.612;1.568;2022-11-20T05:33:34;17.60;;;6.43;;
67902;SDS011;54708;43.612;1.568;2022-11-20T05:36:01;25.33;;;7.07;;
67902;SDS011;54708;43.612;1.568;2022-11-20T05:38:27;33.67;;;7.45;;
67902;SDS011;54708;43.612;1.568;2022-11-20T05:40:53;28.85;;;6.97;;
67902;SDS011;54708;43.612;1.568;2022-11-20T05:43:18;26.48;;;9.55;;
67902;SDS011;54708;43.612;1.568;2022-11-20T05:45:51;17.90;;;8.10;;
67902;SDS011;54708;43.612;1.568;2022-11-20T05:48:19;28.05;;;7.47;;
67902;SDS011;54708;43.612;1.568;2022-11-20T05:50:46;18.02;;;5.78;;
67902;SDS011;54708;43.612;1.568;2022-11-20T05:53:12;22.08;;;7.15;;
67902;SDS011;54708;43.612;1.568;2022-11-20T05:55:37;22.70;;;6.78;;
67902;SDS011;54708;43.612;1.568;2022-11-20T05:58:02;16.38;;;5.97;;
67902;SDS011;54708;43.612;1.568;2022-11-20T06:00:28;10.63;;;6.43;;
67902;SDS011;54708;43.612;1.568;2022-11-20T06:02:53;30.20;;;10.52;;
67902;SDS011;54708;43.612;1.568;2022-11-20T06:05:18;50.33;;;19.73;;
67902;SDS011;54708;43.612;1.568;2022-11-20T06:07:44;41.53;;;18.10;;
67902;SDS011;54708;43.612;1.568;2022-11-20T06:10:09;29.60;;;10.20;;
67902;SDS011;54708;43.612;1.568;2022-11-20T06:12:35;15.50;;;7.25;;
67902;SDS011;54708;43.612;1.568;2022-11-20T06:15:01;25.27;;;6.93;;
67902;SDS011;54708;43.612;1.568;2022-11-20T06:17:26;15.05;;;5.97;;
67902;SDS011;54708;43.612;1.568;2022-11-20T06:19:51;24.75;;;6.05;;
67902;SDS011;54708;43.612;1.568;2022-11-20T06:22:17;14.82;;;6.28;;
67902;SDS011;54708;43.612;1.568;2022-11-20T06:24:42;10.35;;;6.28;;
67902;SDS011;54708;43.612;1.568;2022-11-20T06:27:08;15.05;;;6.38;;
67902;SDS011;54708;43.612;1.568;2022-11-20T06:29:33;25.08;;;7.97;;
67902;SDS011;54708;43.612;1.568;2022-11-20T06:31:58;42.67;;;7.35;;
67902;SDS011;54708;43.612;1.568;2022-11-20T06:34:24;28.27;;;6.18;;
67902;SDS011;54708;43.612;1.568;2022-11-20T06:36:49;10.88;;;4.68;;
67902;SDS011;54708;43.612;1.568;2022-11-20T06:39:14;8.02;;;4.75;;
67902;SDS011;54708;43.612;1.568;2022-11-20T06:41:40;15.55;;;5.13;;
67902;SDS011;54708;43.612;1.568;2022-11-20T06:44:05;9.15;;;5.15;;
67902;SDS011;54708;43.612;1.568;2022-11-20T06:46:31;31.40;;;7.93;;
67902;SDS011;54708;43.612;1.568;2022-11-20T06:48:56;23.85;;;6.43;;
67902;SDS011;54708;43.612;1.568;2022-11-20T06:51:23;18.33;;;6.43;;
67902;SDS011;54708;43.612;1.568;2022-11-20T06:53:48;21.17;;;5.45;;
67902;SDS011;54708;43.612;1.568;2022-11-20T06:56:13;12.35;;;5.15;;
67902;SDS011;54708;43.612;1.568;2022-11-20T06:58:39;14.93;;;5.63;;
67902;SDS011;54708;43.612;1.568;2022-11-20T07:01:05;15.93;;;5.05;;
67902;SDS011;54708;43.612;1.568;2022-11-20T07:03:32;29.92;;;10.85;;
67902;SDS011;54708;43.612;1.568;2022-11-20T07:05:58;19.77;;;6.20;;
67902;SDS011;54708;43.612;1.568;2022-11-20T07:08:25;14.25;;;6.03;;
67902;SDS011;54708;43.612;1.568;2022-11-20T07:10:50;28.40;;;10.57;;
67902;SDS011;54708;43.612;1.568;2022-11-20T07:13:16;32.63;;;10.05;;
67902;SDS011;54708;43.612;1.568;2022-11-20T07:15:41;52.38;;;21.33;;
67902;SDS011;54708;43.612;1.568;2022-11-20T07:18:07;14.13;;;6.53;;
67902;SDS011;54708;43.612;1.568;2022-11-20T07:20:32;16.90;;;4.85;;
67902;SDS011;54708;43.612;1.568;2022-11-20T07:22:58;22.25;;;4.65;;
67902;SDS011;54708;43.612;1.568;2022-11-20T07:25:24;13.80;;;5.25;;
67902;SDS011;54708;43.612;1.568;2022-11-20T07:27:50;16.80;;;4.70;;
67902;SDS011;54708;43.612;1.568;2022-11-20T07:30:16;16.10;;;4.40;;
67902;SDS011;54708;43.612;1.568;2022-11-20T07:32:41;24.33;;;4.43;;
67902;SDS011;54708;43.612;1.568;2022-11-20T07:35:07;71.03;;;8.50;;
67902;SDS011;54708;43.612;1.568;2022-11-20T07:37:36;76.47;;;7.97;;
67902;SDS011;54708;43.612;1.568;2022-11-20T07:40:01;10.23;;;4.40;;
67902;SDS011;54708;43.612;1.568;2022-11-20T07:42:27;26.45;;;11.10;;
67902;SDS011;54708;43.612;1.568;2022-11-20T07:44:52;74.53;;;34.83;;
67902;SDS011;54708;43.612;1.568;2022-11-20T07:47:17;46.30;;;6.90;;
67902;SDS011;54708;43.612;1.568;2022-11-20T07:49:43;38.47;;;7.05;;
67902;SDS011;54708;43.612;1.568;2022-11-20T07:52:08;32.92;;;6.35;;
67902;SDS011;54708;43.612;1.568;2022-11-20T07:54:34;7.28;;;5.50;;
67902;SDS011;54708;43.612;1.568;2022-11-20T07:56:59;20.10;;;6.22;;
67902;SDS011;54708;43.612;1.568;2022-11-20T07:59:24;25.30;;;5.63;;
67902;SDS011;54708;43.612;1.568;2022-11-20T08:01:50;16.25;;;6.35;;
67902;SDS011;54708;43.612;1.568;2022-11-20T08:04:15;10.85;;;5.03;;
67902;SDS011;54708;43.612;1.568;2022-11-20T08:06:41;44.60;;;7.40;;
67902;SDS011;54708;43.612;1.568;2022-11-20T08:09:06;21.48;;;6.97;;
67902;SDS011;54708;43.612;1.568;2022-11-20T08:11:32;36.17;;;6.25;;
67902;SDS011;54708;43.612;1.568;2022-11-20T08:14:16;18.77;;;5.18;;
67902;SDS011;54708;43.612;1.568;2022-11-20T08:16:45;6.20;;;4.40;;
67902;SDS011;54708;43.612;1.568;2022-11-20T08:19:12;10.75;;;5.35;;
67902;SDS011;54708;43.612;1.568;2022-11-20T08:21:38;9.50;;;4.68;;
67902;SDS011;54708;43.612;1.568;2022-11-20T08:24:05;10.82;;;4.38;;
67902;SDS011;54708;43.612;1.568;2022-11-20T08:26:30;7.43;;;4.40;;
67902;SDS011;54708;43.612;1.568;2022-11-20T08:28:56;5.40;;;3.95;;
67902;SDS011;54708;43.612;1.568;2022-11-20T08:31:22;5.28;;;4.15;;
67902;SDS011;54708;43.612;1.568;2022-11-20T08:33:49;5.75;;;3.88;;
67902;SDS011;54708;43.612;1.568;2022-11-20T08:36:14;6.32;;;4.47;;
67902;SDS011;54708;43.612;1.568;2022-11-20T08:38:40;5.78;;;4.72;;
67902;SDS011;54708;43.612;1.568;2022-11-20T08:41:05;7.88;;;4.75;;
67902;SDS011;54708;43.612;1.568;2022-11-20T08:43:51;7.75;;;5.20;;
67902;SDS011;54708;43.612;1.568;2022-11-20T08:46:17;6.50;;;4.50;;
67902;SDS011;54708;43.612;1.568;2022-11-20T08:48:43;7.43;;;4.22;;
67902;SDS011;54708;43.612;1.568;2022-11-20T08:51:09;9.90;;;5.30;;
67902;SDS011;54708;43.612;1.568;2022-11-20T08:53:35;7.95;;;5.38;;
67902;SDS011;54708;43.612;1.568;2022-11-20T08:56:00;8.07;;;5.13;;
67902;SDS011;54708;43.612;1.568;2022-11-20T08:58:26;10.77;;;6.40;;
67902;SDS011;54708;43.612;1.568;2022-11-20T09:00:51;8.38;;;5.32;;
67902;SDS011;54708;43.612;1.568;2022-11-20T09:03:17;7.65;;;4.97;;
67902;SDS011;54708;43.612;1.568;2022-11-20T09:05:42;5.82;;;4.43;;
67902;SDS011;54708;43.612;1.568;2022-11-20T09:08:08;5.53;;;4.43;;
67902;SDS011;54708;43.612;1.568;2022-11-20T09:10:33;7.05;;;5.53;;
67902;SDS011;54708;43.612;1.568;2022-11-20T09:12:59;7.22;;;4.55;;
67902;SDS011;54708;43.612;1.568;2022-11-20T09:15:24;6.57;;;5.00;;
67902;SDS011;54708;43.612;1.568;2022-11-20T09:20:19;6.47;;;4.70;;
67902;SDS011;54708;43.612;1.568;2022-11-20T09:22:44;7.78;;;5.63;;
67902;SDS011;54708;43.612;1.568;2022-11-20T09:25:10;5.55;;;4.97;;
67902;SDS011;54708;43.612;1.568;2022-11-20T09:27:35;6.13;;;4.82;;
67902;SDS011;54708;43.612;1.568;2022-11-20T09:30:01;7.88;;;4.88;;
67902;SDS011;54708;43.612;1.568;2022-11-20T09:32:27;6.57;;;5.57;;
67902;SDS011;54708;43.612;1.568;2022-11-20T09:34:52;6.90;;;4.95;;
67902;SDS011;54708;43.612;1.568;2022-11-20T09:37:17;6.22;;;5.13;;
67902;SDS011;54708;43.612;1.568;2022-11-20T09:39:43;5.82;;;5.20;;
67902;SDS011;54708;43.612;1.568;2022-11-20T09:42:54;6.03;;;4.75;;
67902;SDS011;54708;43.612;1.568;2022-11-20T09:45:01;6.55;;;4.70;;
67902;SDS011;54708;43.612;1.568;2022-11-20T09:55:37;4.28;;;3.88;;
67902;SDS011;54708;43.612;1.568;2022-11-20T09:58:05;3.92;;;3.63;;
67902;SDS011;54708;43.612;1.568;2022-11-20T10:00:32;5.18;;;3.67;;
67902;SDS011;54708;43.612;1.568;2022-11-20T10:05:45;2.53;;;2.33;;
67902;SDS011;54708;43.612;1.568;2022-11-20T10:10:46;2.45;;;2.33;;
67902;SDS011;54708;43.612;1.568;2022-11-20T10:24:55;2.38;;;2.17;;
67902;SDS011;54708;43.612;1.568;2022-11-20T10:27:37;2.53;;;2.33;;
67902;SDS011;54708;43.612;1.568;2022-11-20T10:30:13;26.95;;;17.73;;
67902;SDS011;54708;43.612;1.568;2022-11-20T10:32:44;28.33;;;18.50;;
67902;SDS011;54708;43.612;1.568;2022-11-20T10:37:56;2.80;;;1.85;;
67902;SDS011;54708;43.612;1.568;2022-11-20T10:40:28;1.67;;;1.58;;
67902;SDS011;54708;43.612;1.568;2022-11-20T10:43:03;1.95;;;1.85;;
67902;SDS011;54708;43.612;1.568;2022-11-20T10:48:24;2.33;;;1.80;;
67902;SDS011;54708;43.612;1.568;2022-11-20T10:57:02;3.38;;;3.08;;
67902;SDS011;54708;43.612;1.568;2022-11-20T11:07:30;7.35;;;3.03;;
67902;SDS011;54708;43.612;1.568;2022-11-20T11:10:00;3.58;;;3.28;;
67902;SDS011;54708;43.612;1.568;2022-11-20T11:12:26;2.85;;;2.30;;
67902;SDS011;54708;43.612;1.568;2022-11-20T11:14:54;2.65;;;1.77;;
67902;SDS011;54708;43.612;1.568;2022-11-20T11:20:04;1.90;;;1.70;;
67902;SDS011;54708;43.612;1.568;2022-11-20T11:22:31;1.75;;;1.63;;
67902;SDS011;54708;43.612;1.568;2022-11-20T11:24:58;3.92;;;1.92;;
67902;SDS011;54708;43.612;1.568;2022-11-20T11:27:24;1.80;;;1.50;;
67902;SDS011;54708;43.612;1.568;2022-11-20T11:29:49;3.10;;;1.85;;
67902;SDS011;54708;43.612;1.568;2022-11-20T11:32:17;1.92;;;1.63;;
67902;SDS011;54708;43.612;1.568;2022-11-20T11:34:44;1.90;;;1.60;;
67902;SDS011;54708;43.612;1.568;2022-11-20T11:37:13;1.40;;;1.30;;
67902;SDS011;54708;43.612;1.568;2022-11-20T11:39:42;1.80;;;1.70;;
67902;SDS011;54708;43.612;1.568;2022-11-20T11:42:10;2.88;;;1.65;;
67902;SDS011;54708;43.612;1.568;2022-11-20T11:44:38;2.28;;;1.70;;
67902;SDS011;54708;43.612;1.568;2022-11-20T11:47:37;3.55;;;1.67;;
67902;SDS011;54708;43.612;1.568;2022-11-20T11:55:41;2.42;;;1.95;;
67902;SDS011;54708;43.612;1.568;2022-11-20T11:58:14;2.83;;;2.13;;
67902;SDS011;54708;43.612;1.568;2022-11-20T12:00:53;2.45;;;2.17;;
67902;SDS011;54708;43.612;1.568;2022-11-20T12:03:27;4.55;;;1.92;;
67902;SDS011;54708;43.612;1.568;2022-11-20T12:05:59;3.67;;;2.05;;
67902;SDS011;54708;43.612;1.568;2022-11-20T12:08:49;4.50;;;2.30;;
67902;SDS011;54708;43.612;1.568;2022-11-20T12:16:29;4.38;;;2.30;;
67902;SDS011;54708;43.612;1.568;2022-11-20T12:18:57;5.30;;;2.50;;
67902;SDS011;54708;43.612;1.568;2022-11-20T12:43:20;3.50;;;2.53;;
67902;SDS011;54708;43.612;1.568;2022-11-20T12:48:51;3.08;;;2.78;;
67902;SDS011;54708;43.612;1.568;2022-11-20T12:52:07;3.95;;;2.50;;
67902;SDS011;54708;43.612;1.568;2022-11-20T12:57:09;5.30;;;2.50;;
67902;SDS011;54708;43.612;1.568;2022-11-20T13:00:14;3.03;;;2.40;;
67902;SDS011;54708;43.612;1.568;2022-11-20T13:03:04;5.30;;;2.90;;
67902;SDS011;54708;43.612;1.568;2022-11-20T13:05:44;4.35;;;2.80;;
67902;SDS011;54708;43.612;1.568;2022-11-20T13:08:28;16.35;;;10.25;;
67902;SDS011;54708;43.612;1.568;2022-11-20T13:18:28;2.97;;;2.60;;
67902;SDS011;54708;43.612;1.568;2022-11-20T13:21:13;7.75;;;3.38;;
67902;SDS011;54708;43.612;1.568;2022-11-20T13:24:05;6.45;;;3.15;;
67902;SDS011;54708;43.612;1.568;2022-11-20T13:26:59;4.75;;;3.60;;
67902;SDS011;54708;43.612;1.568;2022-11-20T13:29:31;4.43;;;3.28;;
67902;SDS011;54708;43.612;1.568;2022-11-20T13:32:16;3.15;;;2.70;;
67902;SDS011;54708;43.612;1.568;2022-11-20T13:34:56;5.05;;;2.88;;
67902;SDS011;54708;43.612;1.568;2022-11-20T13:37:33;3.50;;;2.42;;
67902;SDS011;54708;43.612;1.568;2022-11-20T13:48:43;4.72;;;2.42;;
67902;SDS011;54708;43.612;1.568;2022-11-20T13:56:39;3.05;;;1.58;;
67902;SDS011;54708;43.612;1.568;2022-11-20T14:01:56;2.92;;;1.80;;
67902;SDS011;54708;43.612;1.568;2022-11-20T14:04:25;3.97;;;1.92;;
67902;SDS011;54708;43.612;1.568;2022-11-20T14:06:52;4.25;;;1.92;;
67902;SDS011;54708;43.612;1.568;2022-11-20T14:09:25;4.03;;;2.05;;
67902;SDS011;54708;43.612;1.568;2022-11-20T14:11:55;4.28;;;2.40;;
67902;SDS011;54708;43.612;1.568;2022-11-20T14:14:24;4.95;;;2.45;;
67902;SDS011;54708;43.612;1.568;2022-11-20T14:16:51;5.10;;;3.00;;
67902;SDS011;54708;43.612;1.568;2022-11-20T14:21:51;3.08;;;2.85;;
67902;SDS011;54708;43.612;1.568;2022-11-20T14:24:21;4.20;;;2.80;;
67902;SDS011;54708;43.612;1.568;2022-11-20T14:26:49;7.68;;;3.03;;
67902;SDS011;54708;43.612;1.568;2022-11-20T14:29:22;2.75;;;2.42;;
67902;SDS011;54708;43.612;1.568;2022-11-20T14:31:52;3.30;;;2.30;;
67902;SDS011;54708;43.612;1.568;2022-11-20T14:34:19;7.10;;;3.10;;
67902;SDS011;54708;43.612;1.568;2022-11-20T14:36:47;6.38;;;2.47;;
67902;SDS011;54708;43.612;1.568;2022-11-20T14:39:22;9.52;;;3.35;;
67902;SDS011;54708;43.612;1.568;2022-11-20T14:41:52;5.53;;;3.47;;
67902;SDS011;54708;43.612;1.568;2022-11-20T14:44:17;6.18;;;2.78;;
67902;SDS011;54708;43.612;1.568;2022-11-20T14:46:46;8.05;;;2.47;;
67902;SDS011;54708;43.612;1.568;2022-11-20T14:49:11;5.95;;;2.63;;
67902;SDS011;54708;43.612;1.568;2022-11-20T14:51:38;9.25;;;4.07;;
67902;SDS011;54708;43.612;1.568;2022-11-20T14:54:08;7.40;;;2.85;;
67902;SDS011;54708;43.612;1.568;2022-11-20T14:56:41;4.15;;;2.30;;
67902;SDS011;54708;43.612;1.568;2022-11-20T14:59:07;9.68;;;3.00;;
67902;SDS011;54708;43.612;1.568;2022-11-20T15:01:33;3.97;;;2.55;;
67902;SDS011;54708;43.612;1.568;2022-11-20T15:04:06;10.10;;;2.97;;
67902;SDS011;54708;43.612;1.568;2022-11-20T15:06:34;7.82;;;2.70;;
67902;SDS011;54708;43.612;1.568;2022-11-20T15:09:01;7.50;;;2.92;;
67902;SDS011;54708;43.612;1.568;2022-11-20T15:11:33;5.90;;;2.38;;
67902;SDS011;54708;43.612;1.568;2022-11-20T15:14:04;8.10;;;3.22;;
67902;SDS011;54708;43.612;1.568;2022-11-20T15:16:31;6.85;;;2.80;;
67902;SDS011;54708;43.612;1.568;2022-11-20T15:18:56;10.15;;;3.42;;
67902;SDS011;54708;43.612;1.568;2022-11-20T15:21:22;14.90;;;3.58;;
67902;SDS011;54708;43.612;1.568;2022-11-20T15:23:48;12.23;;;3.15;;
67902;SDS011;54708;43.612;1.568;2022-11-20T15:26:14;11.45;;;3.10;;
67902;SDS011;54708;43.612;1.568;2022-11-20T15:28:43;19.25;;;6.78;;
67902;SDS011;54708;43.612;1.568;2022-11-20T15:33:53;17.98;;;7.35;;
67902;SDS011;54708;43.612;1.568;2022-11-20T15:36:19;18.55;;;6.53;;
67902;SDS011;54708;43.612;1.568;2022-11-20T15:38:46;16.70;;;5.60;;
67902;SDS011;54708;43.612;1.568;2022-11-20T15:41:11;14.63;;;6.60;;
67902;SDS011;54708;43.612;1.568;2022-11-20T15:43:36;22.75;;;7.10;;
67902;SDS011;54708;43.612;1.568;2022-11-20T15:46:06;25.42;;;9.50;;
67902;SDS011;54708;43.612;1.568;2022-11-20T15:48:41;16.92;;;6.40;;
67902;SDS011;54708;43.612;1.568;2022-11-20T15:53:37;22.05;;;7.35;;
67902;SDS011;54708;43.612;1.568;2022-11-20T15:56:03;17.13;;;6.28;;
67902;SDS011;54708;43.612;1.568;2022-11-20T15:58:29;19.23;;;5.47;;
67902;SDS011;54708;43.612;1.568;2022-11-20T16:00:54;11.88;;;3.92;;
67902;SDS011;54708;43.612;1.568;2022-11-20T16:03:20;15.77;;;3.72;;
67902;SDS011;54708;43.612;1.568;2022-11-20T16:05:46;14.70;;;4.18;;
67902;SDS011;54708;43.612;1.568;2022-11-20T16:08:11;9.32;;;3.88;;
67902;SDS011;54708;43.612;1.568;2022-11-20T16:10:37;27.20;;;6.78;;
67902;SDS011;54708;43.612;1.568;2022-11-20T16:13:03;21.77;;;4.00;;
67902;SDS011;54708;43.612;1.568;2022-11-20T16:15:50;19.85;;;4.03;;
67902;SDS011;54708;43.612;1.568;2022-11-20T16:18:19;20.50;;;5.97;;
67902;SDS011;54708;43.612;1.568;2022-11-20T16:20:48;18.65;;;5.82;;
67902;SDS011;54708;43.612;1.568;2022-11-20T16:23:15;16.13;;;5.30;;
67902;SDS011;54708;43.612;1.568;2022-11-20T16:25:42;15.43;;;4.15;;
67902;SDS011;54708;43.612;1.568;2022-11-20T16:28:08;14.90;;;5.00;;
67902;SDS011;54708;43.612;1.568;2022-11-20T16:30:34;19.95;;;3.97;;
67902;SDS011;54708;43.612;1.568;2022-11-20T16:33:00;21.50;;;6.25;;
67902;SDS011;54708;43.612;1.568;2022-11-20T16:35:27;14.73;;;3.75;;
67902;SDS011;54708;43.612;1.568;2022-11-20T16:37:53;19.75;;;3.67;;
67902;SDS011;54708;43.612;1.568;2022-11-20T16:40:19;14.65;;;4.68;;
67902;SDS011;54708;43.612;1.568;2022-11-20T16:42:45;12.68;;;3.97;;
67902;SDS011;54708;43.612;1.568;2022-11-20T16:45:10;24.98;;;6.63;;
67902;SDS011;54708;43.612;1.568;2022-11-20T16:47:35;16.67;;;5.07;;
67902;SDS011;54708;43.612;1.568;2022-11-20T16:50:01;14.32;;;4.00;;